Coraopolis, PA

2:50 AM EST on December 28, 2014 (GMT -0500)
Pittsburgh International | Change Station
CLOSE
Current Station
Airport
Location: Pittsburgh,
Elevation: 1201 ft
Nearby Weather Stations

Elev 1201 ft 40.48 °N, 80.21 °W | Updated 45 minutes ago

Rain
Rain
46 °F
Feels Like 41 °F
N
9
Wind Variable Wind from WSW

Today
High -- | Low -- °F
--% Chance of Precip.
Yesterday
High -- | Low -- °F
Precip. -- in
7:43 AM 5:01 PM
Waxing Crescent, 45% visible
Pressure 29.96 in
Visibility 3.0 miles
Clouds Mostly Cloudy 800 ft
Mostly Cloudy 1800 ft
Overcast 4000 ft
Windchill 41 °F
Dew Point 44 °F
Humidity 93%
Rainfall 0.07 in
Snow Depth Not available.
UV 0 out of 12
Pollen .10 out of 12
Air Quality Not available.
Flu Activity Not available.
SPECI KPIT 280705Z 25008KT 3SM -RA BR BKN008 BKN018 OVC040 08/07 A2996 RMK AO2 P0000 T00780067 $

More Conditions Fewer Conditions

Pressure 29.96 in
Visibility 3.0 miles
Clouds Mostly Cloudy 800 ft
Mostly Cloudy 1800 ft
Overcast 4000 ft
Windchill 41 °F
Dew Point 44 °F
Humidity 93%
Rainfall 0.07 in
Snow Depth Not available.
UV 0 out of 12
Pollen .10 out of 12
Air Quality Not available.
Flu Activity Not available.
SPECI KPIT 280705Z 25008KT 3SM -RA BR BKN008 BKN018 OVC040 08/07 A2996 RMK AO2 P0000 T00780067 $

More Conditions Fewer Conditions

10-Day Weather Forecast

Almanac

Astronomy

Dec. 28, 2014 Rise Set
Actual Time
Civil Twilight
Nautical Twilight
Astronomical Twilight
Moon
Length of Visible Light
Length of Day
Tomorrow will be .
, % of the Moon is Illuminated

Today's Extremes

State Highs State Lows

Community

WunderPhotos

Upload Photos

1,781,210 photos uploaded!

WunderBlogs® & News

Nearby

Air Quality

  Air Quality AQ Index Pollutant
Not available.

Snow Depth

Station Depth Elevation

Earthquake Activity

City Distance Mag. Time & Date
Minimum magnitude displayed is 2.5.

Coastal Water Temperatures

Place Temperature

Nearby Weather Stations